sensor_id;sensor_type;location;lat;lon;timestamp;pressure;altitude;pressure_sealevel;temperature;humidity
41230;BME280;26964;50.428;19.218;2022-10-22T00:02:02;1017.4;;;8.4;72.2
41230;BME280;26964;50.428;19.218;2022-10-22T00:07:01;1017.3;;;8.4;72.3
41230;BME280;26964;50.428;19.218;2022-10-22T00:12:01;1017.3;;;8.4;72.3
41230;BME280;26964;50.428;19.218;2022-10-22T00:17:01;1017.2;;;8.4;72.3
41230;BME280;26964;50.428;19.218;2022-10-22T00:22:01;1017.3;;;8.4;72.3
41230;BME280;26964;50.428;19.218;2022-10-22T00:27:03;1017.2;;;8.4;72.3
41230;BME280;26964;50.428;19.218;2022-10-22T00:32:02;1017.0;;;8.4;72.3
41230;BME280;26964;50.428;19.218;2022-10-22T00:37:01;1017.0;;;8.4;72.3
41230;BME280;26964;50.428;19.218;2022-10-22T00:42:02;1017.1;;;8.4;72.3
41230;BME280;26964;50.428;19.218;2022-10-22T00:47:03;1017.1;;;8.4;72.3
41230;BME280;26964;50.428;19.218;2022-10-22T00:52:01;1017.1;;;8.4;72.2
41230;BME280;26964;50.428;19.218;2022-10-22T00:57:01;1017.0;;;8.4;72.2
41230;BME280;26964;50.428;19.218;2022-10-22T01:02:01;1017.0;;;8.4;72.2
41230;BME280;26964;50.428;19.218;2022-10-22T01:07:01;1016.9;;;8.3;72.1
41230;BME280;26964;50.428;19.218;2022-10-22T01:12:06;1017.0;;;8.2;72.1
41230;BME280;26964;50.428;19.218;2022-10-22T01:17:06;1016.9;;;8.2;72.2
41230;BME280;26964;50.428;19.218;2022-10-22T01:22:07;1016.9;;;8.1;72.2
41230;BME280;26964;50.428;19.218;2022-10-22T01:32:06;1016.9;;;8.1;72.3
41230;BME280;26964;50.428;19.218;2022-10-22T01:37:01;1016.8;;;8.1;72.3
41230;BME280;26964;50.428;19.218;2022-10-22T01:42:01;1016.8;;;8.1;72.3
41230;BME280;26964;50.428;19.218;2022-10-22T01:47:10;1016.9;;;8.1;72.4
41230;BME280;26964;50.428;19.218;2022-10-22T01:52:06;1016.8;;;8.1;72.3
41230;BME280;26964;50.428;19.218;2022-10-22T01:57:07;1016.8;;;8.1;72.3
41230;BME280;26964;50.428;19.218;2022-10-22T02:02:06;1016.8;;;8.1;72.4
41230;BME280;26964;50.428;19.218;2022-10-22T02:07:05;1016.7;;;8.0;72.4
41230;BME280;26964;50.428;19.218;2022-10-22T02:12:03;1016.8;;;8.0;72.4
41230;BME280;26964;50.428;19.218;2022-10-22T02:17:01;1016.7;;;8.0;72.4
41230;BME280;26964;50.428;19.218;2022-10-22T02:22:01;1016.8;;;8.0;72.5
41230;BME280;26964;50.428;19.218;2022-10-22T02:27:06;1016.7;;;7.9;72.5
41230;BME280;26964;50.428;19.218;2022-10-22T02:32:02;1016.7;;;7.9;72.5
41230;BME280;26964;50.428;19.218;2022-10-22T02:37:02;1016.7;;;7.9;72.5
41230;BME280;26964;50.428;19.218;2022-10-22T02:42:01;1016.6;;;7.9;72.5
41230;BME280;26964;50.428;19.218;2022-10-22T02:47:02;1016.4;;;7.8;72.5
41230;BME280;26964;50.428;19.218;2022-10-22T02:52:01;1016.5;;;7.8;72.5
41230;BME280;26964;50.428;19.218;2022-10-22T02:57:01;1016.7;;;7.7;72.5
41230;BME280;26964;50.428;19.218;2022-10-22T03:02:02;1016.8;;;7.7;72.5
41230;BME280;26964;50.428;19.218;2022-10-22T03:07:02;1017.0;;;7.6;72.6
41230;BME280;26964;50.428;19.218;2022-10-22T03:12:01;1017.0;;;7.6;72.6
41230;BME280;26964;50.428;19.218;2022-10-22T03:17:01;1017.0;;;7.6;72.7
41230;BME280;26964;50.428;19.218;2022-10-22T03:22:06;1017.0;;;7.6;72.6
41230;BME280;26964;50.428;19.218;2022-10-22T03:27:01;1016.9;;;7.5;72.7
41230;BME280;26964;50.428;19.218;2022-10-22T03:32:01;1016.9;;;7.5;72.7
41230;BME280;26964;50.428;19.218;2022-10-22T03:37:01;1016.8;;;7.5;72.7
41230;BME280;26964;50.428;19.218;2022-10-22T03:42:01;1016.6;;;7.5;72.7
41230;BME280;26964;50.428;19.218;2022-10-22T03:47:01;1016.6;;;7.5;72.8
41230;BME280;26964;50.428;19.218;2022-10-22T03:52:05;1016.6;;;7.5;72.9
41230;BME280;26964;50.428;19.218;2022-10-22T03:57:02;1016.6;;;7.5;72.9
41230;BME280;26964;50.428;19.218;2022-10-22T04:02:02;1016.7;;;7.5;72.9
41230;BME280;26964;50.428;19.218;2022-10-22T04:07:01;1016.8;;;7.5;72.9
41230;BME280;26964;50.428;19.218;2022-10-22T04:12:01;1016.8;;;7.5;72.9
41230;BME280;26964;50.428;19.218;2022-10-22T04:17:01;1016.8;;;7.5;72.9
41230;BME280;26964;50.428;19.218;2022-10-22T04:22:02;1016.8;;;7.4;72.9
41230;BME280;26964;50.428;19.218;2022-10-22T04:27:02;1016.8;;;7.4;72.9
41230;BME280;26964;50.428;19.218;2022-10-22T04:32:02;1016.7;;;7.4;73.0
41230;BME280;26964;50.428;19.218;2022-10-22T04:37:02;1016.5;;;7.3;73.0
41230;BME280;26964;50.428;19.218;2022-10-22T04:42:02;1016.4;;;7.3;73.1
41230;BME280;26964;50.428;19.218;2022-10-22T04:47:01;1016.2;;;7.3;73.1
41230;BME280;26964;50.428;19.218;2022-10-22T04:52:01;1016.3;;;7.3;73.1
41230;BME280;26964;50.428;19.218;2022-10-22T04:57:02;1016.3;;;7.3;73.2
41230;BME280;26964;50.428;19.218;2022-10-22T05:02:01;1016.3;;;7.3;73.2
41230;BME280;26964;50.428;19.218;2022-10-22T05:07:02;1016.2;;;7.3;73.2
41230;BME280;26964;50.428;19.218;2022-10-22T05:12:01;1016.1;;;7.3;73.2
41230;BME280;26964;50.428;19.218;2022-10-22T05:17:01;1016.1;;;7.3;73.3
41230;BME280;26964;50.428;19.218;2022-10-22T05:22:02;1016.5;;;7.2;73.3
41230;BME280;26964;50.428;19.218;2022-10-22T05:27:01;1016.6;;;7.2;73.4
41230;BME280;26964;50.428;19.218;2022-10-22T05:32:01;1016.6;;;7.2;73.4
41230;BME280;26964;50.428;19.218;2022-10-22T05:37:02;1016.6;;;7.2;73.5
41230;BME280;26964;50.428;19.218;2022-10-22T05:42:02;1016.9;;;7.2;73.5
41230;BME280;26964;50.428;19.218;2022-10-22T05:47:01;1016.8;;;7.2;73.5
41230;BME280;26964;50.428;19.218;2022-10-22T05:52:01;1016.9;;;7.2;73.5
41230;BME280;26964;50.428;19.218;2022-10-22T05:57:02;1016.8;;;7.2;73.6
41230;BME280;26964;50.428;19.218;2022-10-22T06:02:01;1016.6;;;7.2;73.7
41230;BME280;26964;50.428;19.218;2022-10-22T06:07:01;1016.6;;;7.3;73.6
41230;BME280;26964;50.428;19.218;2022-10-22T06:12:01;1016.6;;;7.3;73.7
41230;BME280;26964;50.428;19.218;2022-10-22T06:17:01;1016.8;;;7.4;73.7
41230;BME280;26964;50.428;19.218;2022-10-22T06:22:02;1016.6;;;7.6;73.8
41230;BME280;26964;50.428;19.218;2022-10-22T06:27:00;1016.9;;;7.7;73.8
41230;BME280;26964;50.428;19.218;2022-10-22T06:32:01;1017.3;;;7.8;73.8
41230;BME280;26964;50.428;19.218;2022-10-22T06:37:01;1017.2;;;8.0;73.8
41230;BME280;26964;50.428;19.218;2022-10-22T06:42:02;1017.2;;;8.1;73.8
41230;BME280;26964;50.428;19.218;2022-10-22T06:47:00;1017.4;;;8.3;73.7
41230;BME280;26964;50.428;19.218;2022-10-22T06:52:01;1017.4;;;8.4;73.7
41230;BME280;26964;50.428;19.218;2022-10-22T06:57:00;1017.3;;;8.5;73.7
41230;BME280;26964;50.428;19.218;2022-10-22T07:02:01;1017.3;;;8.6;73.8
41230;BME280;26964;50.428;19.218;2022-10-22T07:07:01;1017.3;;;8.7;73.8
41230;BME280;26964;50.428;19.218;2022-10-22T07:12:01;1017.3;;;8.8;73.8
41230;BME280;26964;50.428;19.218;2022-10-22T07:17:01;1017.3;;;8.9;73.9
41230;BME280;26964;50.428;19.218;2022-10-22T07:22:01;1017.1;;;9.0;74.0
41230;BME280;26964;50.428;19.218;2022-10-22T07:27:01;1017.1;;;9.2;74.0
41230;BME280;26964;50.428;19.218;2022-10-22T07:32:01;1017.3;;;9.4;74.0
41230;BME280;26964;50.428;19.218;2022-10-22T07:37:01;1017.2;;;9.6;73.9
41230;BME280;26964;50.428;19.218;2022-10-22T07:42:02;1017.3;;;9.8;73.7
41230;BME280;26964;50.428;19.218;2022-10-22T07:47:00;1017.4;;;9.9;73.7
41230;BME280;26964;50.428;19.218;2022-10-22T07:52:01;1017.4;;;10.1;73.6
41230;BME280;26964;50.428;19.218;2022-10-22T07:57:01;1017.2;;;10.3;73.6
41230;BME280;26964;50.428;19.218;2022-10-22T08:02:14;1017.2;;;10.5;73.5
41230;BME280;26964;50.428;19.218;2022-10-22T08:07:00;1017.3;;;10.6;73.3
41230;BME280;26964;50.428;19.218;2022-10-22T08:12:02;1017.4;;;10.7;73.2
41230;BME280;26964;50.428;19.218;2022-10-22T08:17:01;1017.3;;;10.8;73.2
41230;BME280;26964;50.428;19.218;2022-10-22T08:22:01;1017.1;;;10.9;73.2
41230;BME280;26964;50.428;19.218;2022-10-22T08:27:01;1017.1;;;11.0;73.0
41230;BME280;26964;50.428;19.218;2022-10-22T08:32:01;1017.2;;;11.1;72.9
41230;BME280;26964;50.428;19.218;2022-10-22T08:37:01;1017.3;;;11.2;72.9
41230;BME280;26964;50.428;19.218;2022-10-22T08:42:05;1017.4;;;11.3;72.8
41230;BME280;26964;50.428;19.218;2022-10-22T08:52:00;1017.5;;;11.4;72.8
41230;BME280;26964;50.428;19.218;2022-10-22T09:02:00;1017.6;;;11.6;72.6
41230;BME280;26964;50.428;19.218;2022-10-22T09:07:01;1017.6;;;11.6;72.5
41230;BME280;26964;50.428;19.218;2022-10-22T09:12:02;1017.5;;;11.7;72.4
41230;BME280;26964;50.428;19.218;2022-10-22T09:27:01;1017.5;;;11.8;72.3
41230;BME280;26964;50.428;19.218;2022-10-22T09:32:01;1017.5;;;11.8;72.2
41230;BME280;26964;50.428;19.218;2022-10-22T09:37:06;1017.5;;;11.8;72.2
41230;BME280;26964;50.428;19.218;2022-10-22T09:42:01;1017.5;;;11.9;72.1
41230;BME280;26964;50.428;19.218;2022-10-22T09:47:04;1017.7;;;11.9;72.1
41230;BME280;26964;50.428;19.218;2022-10-22T09:52:01;1017.7;;;11.8;72.0
41230;BME280;26964;50.428;19.218;2022-10-22T09:57:04;1017.7;;;11.8;71.9
41230;BME280;26964;50.428;19.218;2022-10-22T10:02:05;1017.7;;;11.8;71.9
41230;BME280;26964;50.428;19.218;2022-10-22T10:07:00;1017.7;;;11.9;71.9
41230;BME280;26964;50.428;19.218;2022-10-22T10:12:06;1017.6;;;11.9;71.9
41230;BME280;26964;50.428;19.218;2022-10-22T10:22:06;1017.7;;;11.9;71.8
41230;BME280;26964;50.428;19.218;2022-10-22T10:27:06;1017.6;;;11.9;71.8
41230;BME280;26964;50.428;19.218;2022-10-22T10:32:08;1017.6;;;11.9;71.8
41230;BME280;26964;50.428;19.218;2022-10-22T10:37:08;1017.5;;;11.9;71.8
41230;BME280;26964;50.428;19.218;2022-10-22T10:42:06;1017.5;;;11.9;71.9
41230;BME280;26964;50.428;19.218;2022-10-22T10:52:05;1017.6;;;11.7;72.1
41230;BME280;26964;50.428;19.218;2022-10-22T10:57:07;1017.5;;;11.6;72.1
41230;BME280;26964;50.428;19.218;2022-10-22T11:07:08;1017.5;;;11.5;72.4
41230;BME280;26964;50.428;19.218;2022-10-22T11:12:05;1017.5;;;11.4;72.5
41230;BME280;26964;50.428;19.218;2022-10-22T11:17:05;1017.4;;;11.4;72.7
41230;BME280;26964;50.428;19.218;2022-10-22T11:22:04;1017.5;;;11.4;72.9
41230;BME280;26964;50.428;19.218;2022-10-22T11:27:06;1017.3;;;11.4;73.0
41230;BME280;26964;50.428;19.218;2022-10-22T11:32:00;1017.3;;;11.4;73.0
41230;BME280;26964;50.428;19.218;2022-10-22T11:37:01;1017.1;;;11.4;73.1
41230;BME280;26964;50.428;19.218;2022-10-22T11:42:03;1017.1;;;11.4;73.2
41230;BME280;26964;50.428;19.218;2022-10-22T11:52:05;1017.3;;;11.4;73.3
41230;BME280;26964;50.428;19.218;2022-10-22T12:02:00;1017.1;;;11.5;73.6
41230;BME280;26964;50.428;19.218;2022-10-22T12:07:01;1017.3;;;11.6;73.7
41230;BME280;26964;50.428;19.218;2022-10-22T12:12:03;1017.1;;;11.6;73.7
41230;BME280;26964;50.428;19.218;2022-10-22T12:17:04;1017.0;;;11.5;73.7
41230;BME280;26964;50.428;19.218;2022-10-22T12:27:01;1017.1;;;11.5;73.8
41230;BME280;26964;50.428;19.218;2022-10-22T12:32:02;1017.0;;;11.5;73.9
41230;BME280;26964;50.428;19.218;2022-10-22T12:37:03;1016.9;;;11.4;73.9
41230;BME280;26964;50.428;19.218;2022-10-22T12:42:04;1016.9;;;11.4;74.1
41230;BME280;26964;50.428;19.218;2022-10-22T12:47:02;1017.0;;;11.4;74.1
41230;BME280;26964;50.428;19.218;2022-10-22T12:52:02;1016.9;;;11.4;74.2
41230;BME280;26964;50.428;19.218;2022-10-22T12:57:01;1017.0;;;11.4;74.2
41230;BME280;26964;50.428;19.218;2022-10-22T13:02:01;1016.9;;;11.4;74.3
41230;BME280;26964;50.428;19.218;2022-10-22T13:07:03;1016.8;;;11.4;74.3
41230;BME280;26964;50.428;19.218;2022-10-22T13:12:04;1016.8;;;11.4;74.4
41230;BME280;26964;50.428;19.218;2022-10-22T13:17:02;1016.8;;;11.4;74.5
41230;BME280;26964;50.428;19.218;2022-10-22T13:22:00;1016.7;;;11.4;74.6
41230;BME280;26964;50.428;19.218;2022-10-22T13:27:00;1016.8;;;11.4;74.7
41230;BME280;26964;50.428;19.218;2022-10-22T13:32:00;1016.7;;;11.4;74.6
41230;BME280;26964;50.428;19.218;2022-10-22T13:37:06;1016.9;;;11.4;74.7
41230;BME280;26964;50.428;19.218;2022-10-22T13:42:00;1017.0;;;11.4;74.7
41230;BME280;26964;50.428;19.218;2022-10-22T13:47:00;1017.0;;;11.4;74.7
41230;BME280;26964;50.428;19.218;2022-10-22T13:52:00;1017.0;;;11.4;74.7
41230;BME280;26964;50.428;19.218;2022-10-22T13:57:00;1016.9;;;11.3;74.7
41230;BME280;26964;50.428;19.218;2022-10-22T14:02:00;1016.9;;;11.3;74.8
41230;BME280;26964;50.428;19.218;2022-10-22T14:07:00;1016.9;;;11.2;74.9
41230;BME280;26964;50.428;19.218;2022-10-22T14:12:01;1017.0;;;11.2;74.9
41230;BME280;26964;50.428;19.218;2022-10-22T14:17:00;1017.0;;;11.1;74.9
41230;BME280;26964;50.428;19.218;2022-10-22T14:22:01;1017.1;;;11.1;75.0
41230;BME280;26964;50.428;19.218;2022-10-22T14:27:01;1017.2;;;11.1;75.0
41230;BME280;26964;50.428;19.218;2022-10-22T14:32:00;1017.2;;;11.0;75.1
41230;BME280;26964;50.428;19.218;2022-10-22T14:37:01;1017.2;;;11.0;75.1
41230;BME280;26964;50.428;19.218;2022-10-22T14:42:00;1017.2;;;10.9;75.2
41230;BME280;26964;50.428;19.218;2022-10-22T14:47:00;1017.2;;;10.9;75.2
41230;BME280;26964;50.428;19.218;2022-10-22T14:52:00;1017.2;;;10.9;75.3
41230;BME280;26964;50.428;19.218;2022-10-22T14:57:00;1017.3;;;10.8;75.3
41230;BME280;26964;50.428;19.218;2022-10-22T15:02:01;1017.3;;;10.8;75.3
41230;BME280;26964;50.428;19.218;2022-10-22T15:07:01;1017.3;;;10.7;75.4
41230;BME280;26964;50.428;19.218;2022-10-22T15:12:01;1017.2;;;10.7;75.5
41230;BME280;26964;50.428;19.218;2022-10-22T15:17:00;1017.2;;;10.7;75.5
41230;BME280;26964;50.428;19.218;2022-10-22T15:22:00;1017.4;;;10.7;75.6
41230;BME280;26964;50.428;19.218;2022-10-22T15:27:00;1017.4;;;10.6;75.6
41230;BME280;26964;50.428;19.218;2022-10-22T15:32:00;1017.4;;;10.6;75.7
41230;BME280;26964;50.428;19.218;2022-10-22T15:37:02;1017.4;;;10.6;75.7
41230;BME280;26964;50.428;19.218;2022-10-22T15:42:00;1017.4;;;10.5;75.8
41230;BME280;26964;50.428;19.218;2022-10-22T15:47:01;1017.5;;;10.5;75.8
41230;BME280;26964;50.428;19.218;2022-10-22T15:52:05;1017.5;;;10.5;75.9
41230;BME280;26964;50.428;19.218;2022-10-22T15:57:00;1017.5;;;10.5;76.0
41230;BME280;26964;50.428;19.218;2022-10-22T16:02:01;1017.6;;;10.4;76.0
41230;BME280;26964;50.428;19.218;2022-10-22T16:06:59;1017.7;;;10.4;76.0
41230;BME280;26964;50.428;19.218;2022-10-22T16:12:00;1017.7;;;10.3;76.1
41230;BME280;26964;50.428;19.218;2022-10-22T16:17:05;1017.7;;;10.3;76.2
41230;BME280;26964;50.428;19.218;2022-10-22T16:22:01;1017.8;;;10.2;76.2
41230;BME280;26964;50.428;19.218;2022-10-22T16:27:00;1017.8;;;10.2;76.3
41230;BME280;26964;50.428;19.218;2022-10-22T16:32:02;1017.8;;;10.2;76.4
41230;BME280;26964;50.428;19.218;2022-10-22T16:36:59;1017.9;;;10.1;76.4
41230;BME280;26964;50.428;19.218;2022-10-22T16:41:59;1017.9;;;10.1;76.5
41230;BME280;26964;50.428;19.218;2022-10-22T16:47:00;1018.0;;;10.1;76.6
41230;BME280;26964;50.428;19.218;2022-10-22T16:52:01;1018.2;;;10.1;76.6
41230;BME280;26964;50.428;19.218;2022-10-22T16:57:00;1018.1;;;10.1;76.7
41230;BME280;26964;50.428;19.218;2022-10-22T17:01:59;1018.3;;;10.1;76.7
41230;BME280;26964;50.428;19.218;2022-10-22T17:07:00;1018.5;;;10.1;76.8
41230;BME280;26964;50.428;19.218;2022-10-22T17:12:00;1018.4;;;10.1;76.8
41230;BME280;26964;50.428;19.218;2022-10-22T17:17:00;1018.4;;;10.0;76.9
41230;BME280;26964;50.428;19.218;2022-10-22T17:22:00;1018.5;;;10.0;76.9
41230;BME280;26964;50.428;19.218;2022-10-22T17:27:01;1018.5;;;10.0;77.0
41230;BME280;26964;50.428;19.218;2022-10-22T17:31:59;1018.6;;;10.0;77.1
41230;BME280;26964;50.428;19.218;2022-10-22T17:36:59;1018.6;;;10.0;77.1
41230;BME280;26964;50.428;19.218;2022-10-22T17:42:11;1018.7;;;9.9;77.2
41230;BME280;26964;50.428;19.218;2022-10-22T17:46:59;1018.7;;;9.9;77.3
41230;BME280;26964;50.428;19.218;2022-10-22T17:51:59;1018.7;;;9.9;77.4
41230;BME280;26964;50.428;19.218;2022-10-22T17:57:00;1018.6;;;9.9;77.5
41230;BME280;26964;50.428;19.218;2022-10-22T18:02:00;1018.6;;;9.9;77.5
41230;BME280;26964;50.428;19.218;2022-10-22T18:07:00;1018.7;;;9.9;77.6
41230;BME280;26964;50.428;19.218;2022-10-22T18:12:00;1018.7;;;9.9;77.7
41230;BME280;26964;50.428;19.218;2022-10-22T18:17:00;1018.6;;;9.9;77.7
41230;BME280;26964;50.428;19.218;2022-10-22T18:22:00;1018.6;;;9.9;77.8
41230;BME280;26964;50.428;19.218;2022-10-22T18:27:00;1018.5;;;9.9;77.9
41230;BME280;26964;50.428;19.218;2022-10-22T18:31:59;1018.6;;;9.9;77.9
41230;BME280;26964;50.428;19.218;2022-10-22T18:37:00;1018.5;;;9.9;78.0
41230;BME280;26964;50.428;19.218;2022-10-22T18:42:00;1018.6;;;9.9;78.1
41230;BME280;26964;50.428;19.218;2022-10-22T18:46:59;1018.7;;;10.0;78.1
41230;BME280;26964;50.428;19.218;2022-10-22T18:51:59;1018.8;;;10.0;78.2
41230;BME280;26964;50.428;19.218;2022-10-22T18:56:59;1019.0;;;10.0;78.2
41230;BME280;26964;50.428;19.218;2022-10-22T19:01:59;1019.1;;;10.0;78.3
41230;BME280;26964;50.428;19.218;2022-10-22T19:06:59;1019.1;;;10.0;78.4
41230;BME280;26964;50.428;19.218;2022-10-22T19:12:00;1019.2;;;10.0;78.4
41230;BME280;26964;50.428;19.218;2022-10-22T19:16:59;1019.2;;;10.0;78.5
41230;BME280;26964;50.428;19.218;2022-10-22T19:22:00;1019.2;;;10.1;78.6
41230;BME280;26964;50.428;19.218;2022-10-22T19:27:00;1019.4;;;10.1;78.7
41230;BME280;26964;50.428;19.218;2022-10-22T19:31:59;1019.5;;;10.2;78.8
41230;BME280;26964;50.428;19.218;2022-10-22T19:36:59;1019.4;;;10.2;78.9
41230;BME280;26964;50.428;19.218;2022-10-22T19:41:59;1019.6;;;10.3;79.0
41230;BME280;26964;50.428;19.218;2022-10-22T19:47:00;1019.6;;;10.3;79.0
41230;BME280;26964;50.428;19.218;2022-10-22T19:52:00;1019.6;;;10.4;79.0
41230;BME280;26964;50.428;19.218;2022-10-22T19:57:00;1019.7;;;10.4;79.2
41230;BME280;26964;50.428;19.218;2022-10-22T20:01:59;1019.7;;;10.5;79.3
41230;BME280;26964;50.428;19.218;2022-10-22T20:06:59;1019.6;;;10.6;79.3
41230;BME280;26964;50.428;19.218;2022-10-22T20:11:59;1019.7;;;10.6;79.3
41230;BME280;26964;50.428;19.218;2022-10-22T20:17:00;1019.7;;;10.6;79.3
41230;BME280;26964;50.428;19.218;2022-10-22T20:21:59;1019.8;;;10.6;79.4
41230;BME280;26964;50.428;19.218;2022-10-22T20:27:00;1019.8;;;10.6;79.6
41230;BME280;26964;50.428;19.218;2022-10-22T20:32:00;1019.7;;;10.7;79.7
41230;BME280;26964;50.428;19.218;2022-10-22T20:37:00;1019.8;;;10.8;79.7
41230;BME280;26964;50.428;19.218;2022-10-22T20:41:59;1019.8;;;10.8;79.7
41230;BME280;26964;50.428;19.218;2022-10-22T20:47:00;1019.9;;;10.9;79.7
41230;BME280;26964;50.428;19.218;2022-10-22T20:51:59;1019.8;;;10.9;79.7
41230;BME280;26964;50.428;19.218;2022-10-22T20:57:00;1020.0;;;10.9;79.8
41230;BME280;26964;50.428;19.218;2022-10-22T21:02:00;1020.0;;;11.0;79.8
41230;BME280;26964;50.428;19.218;2022-10-22T21:07:04;1020.1;;;11.0;79.8
41230;BME280;26964;50.428;19.218;2022-10-22T21:12:00;1020.1;;;11.1;79.9
41230;BME280;26964;50.428;19.218;2022-10-22T21:17:00;1020.1;;;11.1;80.0
41230;BME280;26964;50.428;19.218;2022-10-22T21:21:59;1020.1;;;11.1;80.0
41230;BME280;26964;50.428;19.218;2022-10-22T21:26:59;1020.1;;;11.2;80.1
41230;BME280;26964;50.428;19.218;2022-10-22T21:31:59;1020.2;;;11.2;80.1
41230;BME280;26964;50.428;19.218;2022-10-22T21:37:00;1020.1;;;11.2;80.0
41230;BME280;26964;50.428;19.218;2022-10-22T21:41:59;1020.2;;;11.2;80.0
41230;BME280;26964;50.428;19.218;2022-10-22T21:46:59;1020.3;;;11.2;80.1
41230;BME280;26964;50.428;19.218;2022-10-22T21:52:00;1020.3;;;11.2;80.1
41230;BME280;26964;50.428;19.218;2022-10-22T21:57:00;1020.2;;;11.1;80.1
41230;BME280;26964;50.428;19.218;2022-10-22T22:02:00;1020.3;;;11.1;80.1
41230;BME280;26964;50.428;19.218;2022-10-22T22:07:00;1020.5;;;11.1;80.2
41230;BME280;26964;50.428;19.218;2022-10-22T22:11:59;1020.4;;;11.1;80.2
41230;BME280;26964;50.428;19.218;2022-10-22T22:17:00;1020.5;;;11.1;80.2
41230;BME280;26964;50.428;19.218;2022-10-22T22:22:01;1020.4;;;11.2;80.3
41230;BME280;26964;50.428;19.218;2022-10-22T22:26:59;1020.4;;;11.2;80.3
41230;BME280;26964;50.428;19.218;2022-10-22T22:32:00;1020.4;;;11.2;80.3
41230;BME280;26964;50.428;19.218;2022-10-22T22:37:00;1020.4;;;11.2;80.3
41230;BME280;26964;50.428;19.218;2022-10-22T22:41:59;1020.5;;;11.2;80.4
41230;BME280;26964;50.428;19.218;2022-10-22T22:47:00;1020.6;;;11.2;80.4
41230;BME280;26964;50.428;19.218;2022-10-22T22:52:00;1020.8;;;11.2;80.5
41230;BME280;26964;50.428;19.218;2022-10-22T22:56:59;1020.8;;;11.2;80.5
41230;BME280;26964;50.428;19.218;2022-10-22T23:01:59;1020.8;;;11.3;80.5
41230;BME280;26964;50.428;19.218;2022-10-22T23:07:00;1020.7;;;11.3;80.5
41230;BME280;26964;50.428;19.218;2022-10-22T23:11:59;1020.8;;;11.3;80.5
41230;BME280;26964;50.428;19.218;2022-10-22T23:17:00;1020.8;;;11.3;80.5
41230;BME280;26964;50.428;19.218;2022-10-22T23:21:59;1020.8;;;11.2;80.5
41230;BME280;26964;50.428;19.218;2022-10-22T23:27:01;1020.9;;;11.2;80.4
41230;BME280;26964;50.428;19.218;2022-10-22T23:31:59;1020.9;;;11.2;80.5
41230;BME280;26964;50.428;19.218;2022-10-22T23:37:00;1021.1;;;11.2;80.5
41230;BME280;26964;50.428;19.218;2022-10-22T23:41:59;1021.1;;;11.1;80.5
41230;BME280;26964;50.428;19.218;2022-10-22T23:47:00;1021.1;;;11.1;80.6
41230;BME280;26964;50.428;19.218;2022-10-22T23:51:59;1021.2;;;11.1;80.6
41230;BME280;26964;50.428;19.218;2022-10-22T23:56:59;1021.2;;;11.1;80.6
